Time;durP1;ratioP1;P1;durP2;ratioP2;P2;SDS_P1;SDS_P2;PMS_P1;PMS_P2;Temp;Humidity;BMP_temperature;BMP_pressure;BME280_temperature;BME280_humidity;BME280_pressure;Samples;Min_cycle;Max_cycle;Signal;HPM_P1;HPM_P2
2024/03/02 00:01:10;;;;;;;112.50;61.50;;;;;;;10.05;100.00;99870.36;213276;1287;141028;-86
2024/03/02 00:06:11;;;;;;;111.10;61.10;;;;;;;10.02;100.00;99861.77;215639;1285;139546;-86
2024/03/02 00:11:14;;;;;;;108.00;60.70;;;;;;;10.00;100.00;99859.79;213933;1285;140906;-87
2024/03/02 00:16:16;;;;;;;124.20;63.10;;;;;;;9.97;100.00;99858.59;214016;1288;139530;-83
2024/03/02 00:21:20;;;;;;;106.90;57.80;;;;;;;9.95;100.00;99858.90;214027;1288;155337;-87
2024/03/02 00:26:20;;;;;;;107.10;57.90;;;;;;;9.92;100.00;99862.58;213517;1288;141346;-87
2024/03/02 00:31:20;;;;;;;112.70;60.30;;;;;;;9.92;100.00;99853.31;213820;1285;97962;-87
2024/03/02 00:36:27;;;;;;;114.10;59.20;;;;;;;9.89;100.00;99846.23;213499;1288;140485;-86
2024/03/02 00:41:30;;;;;;;120.50;61.30;;;;;;;9.89;100.00;99846.85;214077;1285;139004;-87
2024/03/02 00:46:34;;;;;;;115.10;59.50;;;;;;;9.87;100.00;99849.29;213576;1285;141498;-86
2024/03/02 00:51:35;;;;;;;110.50;57.70;;;;;;;9.85;100.00;99855.48;213863;1286;139363;-86
2024/03/02 00:56:36;;;;;;;118.90;60.70;;;;;;;9.84;100.00;99850.45;213409;1286;142044;-86
2024/03/02 01:01:36;;;;;;;116.70;61.00;;;;;;;9.83;100.00;99849.11;214150;1288;98069;-86
2024/03/02 01:06:37;;;;;;;112.50;57.10;;;;;;;9.82;100.00;99851.08;214722;1285;140178;-89
2024/03/02 01:11:37;;;;;;;121.90;63.50;;;;;;;9.80;100.00;99844.70;214150;1285;139129;-87
2024/03/02 01:16:37;;;;;;;113.90;59.50;;;;;;;9.80;100.00;99834.25;213655;1284;141219;-88
2024/03/02 01:21:38;;;;;;;115.80;57.90;;;;;;;9.80;100.00;99836.92;213718;1286;142105;-87
2024/03/02 01:26:38;;;;;;;118.30;59.10;;;;;;;9.79;100.00;99835.34;213351;1293;140674;-87
2024/03/02 01:31:41;;;;;;;127.20;59.90;;;;;;;9.78;100.00;99835.89;214508;1285;97976;-87
2024/03/02 01:36:42;;;;;;;121.20;61.60;;;;;;;9.77;100.00;99838.95;213804;1285;140464;-86
2024/03/02 01:41:42;;;;;;;124.50;59.30;;;;;;;9.77;100.00;99831.09;214042;1288;138989;-87
2024/03/02 01:46:43;;;;;;;117.30;60.20;;;;;;;9.77;100.00;99829.14;213477;1285;140377;-87
2024/03/02 01:51:43;;;;;;;114.40;60.50;;;;;;;9.75;100.00;99820.96;214443;1286;139226;-85
2024/03/02 01:56:45;;;;;;;110.70;58.90;;;;;;;9.75;100.00;99808.95;213889;1286;140345;-86
2024/03/02 02:01:45;;;;;;;112.60;58.00;;;;;;;9.72;100.00;99801.80;218889;1286;139460;-87
2024/03/02 02:06:46;;;;;;;109.70;57.50;;;;;;;9.71;100.00;99799.42;215724;1285;140321;-87
2024/03/02 02:11:46;;;;;;;107.40;56.80;;;;;;;9.70;100.00;99802.17;214120;1289;139072;-87
2024/03/02 02:16:46;;;;;;;109.20;56.10;;;;;;;9.69;100.00;99804.67;213156;1286;140590;-86
2024/03/02 02:21:47;;;;;;;100.80;54.70;;;;;;;9.65;100.00;99805.45;213810;1288;139156;-86
2024/03/02 02:26:47;;;;;;;101.80;54.00;;;;;;;9.62;100.00;99807.71;213455;1288;140624;-86
2024/03/02 02:31:47;;;;;;;102.20;52.40;;;;;;;9.59;100.00;99806.36;213615;1287;139169;-87
2024/03/02 02:36:48;;;;;;;113.80;56.90;;;;;;;9.55;100.00;99810.11;213257;1285;141147;-88
2024/03/02 02:41:48;;;;;;;101.70;53.90;;;;;;;9.52;100.00;99808.23;213833;1286;141296;-86
2024/03/02 02:46:49;;;;;;;131.00;63.40;;;;;;;9.50;100.00;99806.02;213487;1288;140380;-87
2024/03/02 02:51:49;;;;;;;105.70;54.30;;;;;;;9.47;100.00;99802.93;213786;1290;139315;-87
2024/03/02 02:56:49;;;;;;;92.30;49.40;;;;;;;9.44;100.00;99807.38;213298;1287;141064;-86
2024/03/02 03:01:51;;;;;;;105.40;52.10;;;;;;;9.41;100.00;99810.50;214042;1284;141014;-86
2024/03/02 03:06:52;;;;;;;116.50;56.80;;;;;;;9.38;100.00;99807.35;213802;1285;140598;-87
2024/03/02 03:11:52;;;;;;;86.60;46.30;;;;;;;9.34;100.00;99807.87;215521;1285;138965;-87
2024/03/02 03:16:52;;;;;;;96.10;49.60;;;;;;;9.31;100.00;99808.80;213431;1288;140894;-87
2024/03/02 03:21:53;;;;;;;94.70;46.80;;;;;;;9.28;100.00;99810.66;214016;1285;138879;-86
2024/03/02 03:26:53;;;;;;;88.00;47.90;;;;;;;9.26;100.00;99798.65;213593;1288;141059;-88
2024/03/02 03:31:53;;;;;;;87.80;45.20;;;;;;;9.24;100.00;99792.44;214120;1285;138780;-86
2024/03/02 03:36:54;;;;;;;95.80;48.70;;;;;;;9.23;100.00;99789.08;213620;1285;140139;-87
2024/03/02 03:41:55;;;;;;;86.70;47.90;;;;;;;9.22;100.00;99783.48;214051;1288;138763;-86
2024/03/02 03:46:55;;;;;;;85.80;43.80;;;;;;;9.21;100.00;99793.75;213484;1285;140154;-89
2024/03/02 03:51:55;;;;;;;89.40;46.00;;;;;;;9.19;100.00;99793.96;213885;1285;139175;-87
2024/03/02 03:56:56;;;;;;;80.70;41.90;;;;;;;9.17;100.00;99787.29;213480;1284;141619;-86
2024/03/02 04:01:56;;;;;;;81.60;44.50;;;;;;;9.16;100.00;99779.52;213686;1287;139184;-87
2024/03/02 04:06:56;;;;;;;90.10;46.80;;;;;;;9.15;100.00;99779.20;213667;1288;140281;-87
2024/03/02 04:11:57;;;;;;;84.20;44.40;;;;;;;9.15;100.00;99778.10;216222;1284;138947;-87
2024/03/02 04:16:57;;;;;;;78.10;40.60;;;;;;;9.14;100.00;99780.38;213478;1287;140395;-87
2024/03/02 04:21:58;;;;;;;145.00;69.10;;;;;;;9.14;100.00;99782.88;213807;1286;138930;-87
2024/03/02 04:26:58;;;;;;;89.20;43.70;;;;;;;9.13;100.00;99782.48;213277;1285;140576;-87
2024/03/02 04:31:59;;;;;;;79.50;42.40;;;;;;;9.12;100.00;99791.35;214078;1285;139024;-87
2024/03/02 04:36:59;;;;;;;79.00;43.30;;;;;;;9.10;100.00;99798.85;213749;1288;140703;-86
2024/03/02 04:42:00;;;;;;;86.30;43.50;;;;;;;9.08;100.00;99801.19;214029;1288;141651;-86
2024/03/02 04:47:00;;;;;;;90.80;45.50;;;;;;;9.09;100.00;99809.20;213519;1285;140296;-87
2024/03/02 04:52:01;;;;;;;85.30;42.20;;;;;;;9.07;100.00;99809.66;213815;1288;139174;-87
2024/03/02 04:57:02;;;;;;;89.00;42.90;;;;;;;9.08;100.00;99810.68;213491;1285;140032;-87
2024/03/02 05:02:02;;;;;;;79.90;40.50;;;;;;;9.05;100.00;99817.02;214070;1285;138913;-87
2024/03/02 05:07:03;;;;;;;86.10;43.70;;;;;;;9.02;100.00;99817.77;213571;1288;141658;-88
2024/03/02 05:17:16;;;;;;;82.80;41.50;;;;;;;8.98;100.00;99823.32;213462;1285;140334;-86
2024/03/02 05:22:16;;;;;;;77.70;41.70;;;;;;;8.98;100.00;99832.10;214142;1285;139021;-87
2024/03/02 05:27:17;;;;;;;82.60;44.00;;;;;;;8.97;100.00;99841.27;213545;1284;140243;-86
2024/03/02 05:32:17;;;;;;;76.00;40.20;;;;;;;8.95;100.00;99838.58;215333;1285;138819;-87
2024/03/02 05:37:18;;;;;;;72.00;40.20;;;;;;;8.94;100.00;99838.34;215140;1284;140532;-86
2024/03/02 05:42:18;;;;;;;75.00;39.70;;;;;;;8.93;100.00;99839.11;214909;1286;138813;-87
2024/03/02 05:47:19;;;;;;;81.90;42.70;;;;;;;8.93;100.00;99842.16;213837;1286;140028;-86
2024/03/02 05:52:20;;;;;;;81.40;40.90;;;;;;;8.92;100.00;99843.11;214359;1288;139897;-87
2024/03/02 06:02:41;;;;;;;85.90;42.90;;;;;;;8.89;100.00;99840.58;214142;1288;139473;-86
2024/03/02 06:07:43;;;;;;;101.60;45.50;;;;;;;8.84;100.00;99850.72;213717;1285;141421;-86
2024/03/02 06:12:43;;;;;;;110.40;47.60;;;;;;;8.79;100.00;99860.16;215033;1289;138859;-87
2024/03/02 06:17:44;;;;;;;101.70;48.00;;;;;;;8.76;100.00;99865.46;214275;1285;140609;-86
2024/03/02 06:22:44;;;;;;;93.30;44.90;;;;;;;8.73;100.00;99874.77;214063;1288;139286;-85
2024/03/02 06:27:44;;;;;;;84.10;43.20;;;;;;;8.69;100.00;99866.89;213609;1284;140500;-86
2024/03/02 06:32:45;;;;;;;87.10;41.90;;;;;;;8.67;100.00;99869.77;214307;1285;139116;-86
2024/03/02 06:37:45;;;;;;;80.20;40.70;;;;;;;8.64;100.00;99877.56;213793;1288;140385;-87
2024/03/02 06:42:45;;;;;;;76.90;39.90;;;;;;;8.66;100.00;99888.25;214276;1288;99256;-87
2024/03/02 06:47:46;;;;;;;96.10;44.20;;;;;;;8.68;100.00;99886.94;213577;1285;140310;-87
2024/03/02 06:52:46;;;;;;;75.90;39.40;;;;;;;8.70;100.00;99875.67;214211;1288;139392;-87
2024/03/02 06:57:47;;;;;;;78.80;42.10;;;;;;;8.72;100.00;99876.17;213689;1284;140271;-86
2024/03/02 07:02:47;;;;;;;92.00;44.40;;;;;;;8.74;100.00;99871.41;214130;1284;138888;-86
2024/03/02 07:07:47;;;;;;;84.60;40.70;;;;;;;8.75;100.00;99876.04;213781;1284;140178;-86
2024/03/02 07:12:48;;;;;;;76.50;40.50;;;;;;;8.77;100.00;99883.20;214451;1288;99361;-87
2024/03/02 07:17:48;;;;;;;80.10;41.30;;;;;;;8.81;100.00;99883.31;214943;1288;141291;-87
2024/03/02 07:22:49;;;;;;;81.50;41.90;;;;;;;8.90;100.00;99883.00;214158;1288;139454;-88
2024/03/02 07:27:50;;;;;;;83.10;42.90;;;;;;;9.01;100.00;99888.36;213775;1285;140086;-87
2024/03/02 07:32:51;;;;;;;72.70;41.00;;;;;;;9.14;100.00;99893.32;214010;1285;139360;-88
2024/03/02 07:37:51;;;;;;;71.80;40.80;;;;;;;9.25;100.00;99900.46;213353;1288;140348;-85
2024/03/02 07:42:51;;;;;;;72.30;38.50;;;;;;;9.37;100.00;99897.50;213815;1286;97982;-88
2024/03/02 07:47:52;;;;;;;83.00;44.00;;;;;;;9.51;100.00;99903.63;213593;1285;139924;-88
2024/03/02 07:52:52;;;;;;;72.70;40.40;;;;;;;9.62;100.00;99899.87;214229;1285;139026;-86
2024/03/02 07:57:53;;;;;;;69.40;38.20;;;;;;;9.70;100.00;99906.27;213618;1284;141010;-85
2024/03/02 08:02:54;;;;;;;76.70;40.10;;;;;;;9.78;100.00;99915.42;214232;1288;138912;-85
2024/03/02 08:07:54;;;;;;;69.10;40.60;;;;;;;9.85;100.00;99914.77;213655;1285;141087;-86
2024/03/02 08:12:54;;;;;;;76.90;41.60;;;;;;;9.96;100.00;99912.54;214287;1285;98642;-87
2024/03/02 08:17:58;;;;;;;64.50;39.70;;;;;;;10.08;100.00;99920.24;215322;1285;138949;-86
2024/03/02 08:22:58;;;;;;;69.00;39.30;;;;;;;10.21;100.00;99924.17;214142;1285;139973;-86
2024/03/02 08:27:59;;;;;;;75.10;40.80;;;;;;;10.33;100.00;99930.42;213541;1288;141359;-86
2024/03/02 08:32:59;;;;;;;73.60;41.90;;;;;;;10.46;100.00;99928.52;214207;1285;140240;-85
2024/03/02 08:38:00;;;;;;;66.60;38.20;;;;;;;10.59;100.00;99926.51;213695;1288;140901;-86
2024/03/02 08:43:01;;;;;;;69.00;41.60;;;;;;;10.73;100.00;99923.87;214467;1285;98022;-86
2024/03/02 08:48:01;;;;;;;73.10;40.10;;;;;;;10.83;100.00;99929.00;213886;1288;140877;-86
2024/03/02 08:53:03;;;;;;;65.80;39.90;;;;;;;10.95;100.00;99932.80;214494;1288;139347;-85
2024/03/02 08:58:07;;;;;;;67.10;38.10;;;;;;;11.08;100.00;99931.25;213475;1288;140860;-86
2024/03/02 09:03:07;;;;;;;66.90;40.00;;;;;;;11.17;100.00;99929.28;213840;1287;139379;-87
2024/03/02 09:08:08;;;;;;;63.20;37.20;;;;;;;11.30;100.00;99927.00;213806;1290;140838;-88
2024/03/02 09:13:08;;;;;;;58.70;34.40;;;;;;;11.47;100.00;99928.97;214506;1290;98163;-88
2024/03/02 09:18:09;;;;;;;64.50;38.30;;;;;;;11.65;100.00;99934.27;215112;1287;140424;-87
2024/03/02 09:23:09;;;;;;;66.00;39.40;;;;;;;11.85;100.00;99935.50;213991;1286;139030;-88
2024/03/02 09:28:10;;;;;;;61.00;36.90;;;;;;;12.07;100.00;99935.52;213435;1288;141187;-89
2024/03/02 09:33:11;;;;;;;62.70;34.70;;;;;;;12.30;100.00;99931.65;214063;1288;139258;-89
2024/03/02 09:38:11;;;;;;;61.70;36.40;;;;;;;12.56;100.00;99926.96;213549;1286;140685;-88
2024/03/02 09:43:13;;;;;;;61.70;37.70;;;;;;;12.86;100.00;99922.85;214631;1285;97967;-90
2024/03/02 09:48:13;;;;;;;59.50;35.90;;;;;;;13.05;100.00;99928.75;213943;1285;140173;-89
2024/03/02 09:53:15;;;;;;;62.50;37.00;;;;;;;13.17;100.00;99933.01;214214;1286;140018;-89
2024/03/02 09:58:15;;;;;;;57.20;35.10;;;;;;;13.37;100.00;99937.20;213770;1286;140644;-86
2024/03/02 10:03:18;;;;;;;60.30;35.20;;;;;;;13.62;100.00;99941.56;214006;1286;140046;-87
2024/03/02 10:08:18;;;;;;;53.00;33.20;;;;;;;13.82;100.00;99947.77;213555;1286;141103;-85
2024/03/02 10:13:19;;;;;;;54.80;33.10;;;;;;;14.09;100.00;99950.58;214351;1287;102943;-88
2024/03/02 10:18:28;;;;;;;57.30;37.50;;;;;;;14.15;100.00;99949.33;215776;1289;140607;-87
2024/03/02 10:23:28;;;;;;;56.30;36.30;;;;;;;14.19;100.00;99951.97;215188;1286;140132;-88
2024/03/02 10:28:29;;;;;;;56.60;34.80;;;;;;;14.22;100.00;99945.01;214175;1286;140569;-87
2024/03/02 10:33:30;;;;;;;54.80;34.80;;;;;;;14.33;100.00;99941.79;214444;1287;140920;-88
2024/03/02 10:38:31;;;;;;;56.10;33.20;;;;;;;14.54;100.00;99941.84;214228;1288;140373;-89
2024/03/02 10:43:31;;;;;;;47.40;32.20;;;;;;;14.83;100.00;99937.96;214434;1285;98025;-87
2024/03/02 10:48:35;;;;;;;55.70;33.10;;;;;;;15.17;100.00;99933.02;213674;1285;140885;-92
2024/03/02 10:53:35;;;;;;;49.10;31.80;;;;;;;15.34;100.00;99932.32;214637;1286;139092;-92
2024/03/02 10:58:37;;;;;;;57.30;33.80;;;;;;;15.50;100.00;99932.13;214627;1285;140603;-87
2024/03/02 11:03:38;;;;;;;51.00;33.60;;;;;;;15.60;100.00;99928.72;214254;1285;140331;-87
2024/03/02 11:08:40;;;;;;;51.00;33.30;;;;;;;15.73;100.00;99917.21;213576;1285;140609;-87
2024/03/02 11:13:49;;;;;;;55.10;32.60;;;;;;;15.94;100.00;99917.87;214338;1288;104850;-87
2024/03/02 11:18:50;;;;;;;50.20;32.70;;;;;;;16.05;100.00;99916.08;214712;1285;140975;-89
2024/03/02 11:23:51;;;;;;;52.30;33.00;;;;;;;16.03;100.00;99913.28;214644;1286;139605;-88
2024/03/02 11:28:53;;;;;;;53.80;33.80;;;;;;;16.06;100.00;99916.05;213673;1288;140431;-88
2024/03/02 11:33:54;;;;;;;54.10;34.80;;;;;;;16.17;100.00;99919.73;214129;1286;139125;-87
2024/03/02 11:38:55;;;;;;;58.30;35.50;;;;;;;16.14;100.00;99918.19;213671;1288;140851;-87
2024/03/02 11:43:55;;;;;;;53.70;35.30;;;;;;;15.96;100.00;99912.61;214061;1288;139554;-87
2024/03/02 11:48:56;;;;;;;56.60;36.40;;;;;;;15.93;100.00;99912.35;213457;1286;140607;-87
2024/03/02 11:53:58;;;;;;;56.40;35.60;;;;;;;15.87;100.00;99910.38;213966;1286;139157;-86
2024/03/02 11:58:58;;;;;;;62.50;36.80;;;;;;;15.84;100.00;99907.36;213594;1286;140564;-87
2024/03/02 12:03:59;;;;;;;53.70;38.60;;;;;;;15.79;100.00;99912.45;214029;1286;139405;-87
2024/03/02 12:09:00;;;;;;;50.80;34.40;;;;;;;15.71;100.00;99912.13;213415;1290;140922;-87
2024/03/02 12:14:00;;;;;;;84.50;44.40;;;;;;;15.67;100.00;99910.77;213834;1287;139341;-87
2024/03/02 12:19:00;;;;;;;61.20;36.70;;;;;;;15.61;100.00;99912.23;213922;1288;141058;-87
2024/03/02 12:24:01;;;;;;;53.90;35.30;;;;;;;15.57;100.00;99909.51;214496;1289;139207;-88
2024/03/02 12:29:02;;;;;;;73.10;41.30;;;;;;;15.46;100.00;99910.58;213347;1288;140524;-88
2024/03/02 12:34:06;;;;;;;73.80;42.10;;;;;;;15.24;100.00;99910.67;213901;1285;139743;-88
2024/03/02 12:39:08;;;;;;;57.80;36.60;;;;;;;15.17;100.00;99906.90;213395;1288;141219;-88
2024/03/02 12:44:09;;;;;;;60.00;36.80;;;;;;;15.14;100.00;99906.39;213955;1288;139840;-87
2024/03/02 12:49:12;;;;;;;84.20;45.10;;;;;;;15.23;100.00;99904.90;213526;1288;140463;-88
2024/03/02 12:54:12;;;;;;;51.60;35.50;;;;;;;15.25;100.00;99907.40;213967;1285;139510;-88
2024/03/02 12:59:21;;;;;;;54.00;35.40;;;;;;;15.26;100.00;99903.52;213203;1286;140717;-89
2024/03/02 13:04:23;;;;;;;63.90;39.20;;;;;;;15.27;100.00;99906.48;213532;1292;139860;-87
2024/03/02 13:09:24;;;;;;;61.10;40.00;;;;;;;15.22;100.00;99903.59;213125;1286;140648;-87
2024/03/02 13:14:26;;;;;;;52.30;35.40;;;;;;;15.30;100.00;99897.90;213863;1288;139786;-88
2024/03/02 13:19:30;;;;;;;53.40;34.60;;;;;;;15.34;100.00;99896.12;213898;1288;141366;-87
2024/03/02 13:24:31;;;;;;;53.90;36.00;;;;;;;15.41;100.00;99897.98;214164;1288;139100;-86
2024/03/02 13:29:31;;;;;;;49.90;34.90;;;;;;;15.43;100.00;99897.23;213172;1291;140571;-85
2024/03/02 13:34:34;;;;;;;54.60;33.70;;;;;;;15.42;100.00;99899.45;213791;1288;139482;-87
2024/03/02 13:39:40;;;;;;;49.80;33.10;;;;;;;15.36;100.00;99889.58;213444;1288;140273;-87
2024/03/02 13:44:45;;;;;;;49.00;33.60;;;;;;;15.39;100.00;99893.42;213995;1285;139585;-87
2024/03/02 13:49:46;;;;;;;50.70;32.40;;;;;;;15.40;100.00;99899.51;213558;1286;140610;-87
2024/03/02 13:54:47;;;;;;;52.30;32.90;;;;;;;15.39;100.00;99901.27;213896;1286;139172;-86
2024/03/02 13:59:54;;;;;;;49.50;33.00;;;;;;;15.35;100.00;99901.64;213064;1287;140264;-87
2024/03/02 14:04:55;;;;;;;48.70;32.00;;;;;;;15.25;100.00;99902.66;213761;1285;139469;-86
2024/03/02 14:09:55;;;;;;;50.00;30.80;;;;;;;15.23;100.00;99903.25;213417;1288;140657;-87
2024/03/02 14:14:58;;;;;;;49.10;30.90;;;;;;;15.26;100.00;99904.54;213899;1288;139663;-87
2024/03/02 14:20:01;;;;;;;49.60;31.40;;;;;;;15.22;100.00;99899.14;213793;1288;140829;-85
2024/03/02 14:25:01;;;;;;;49.10;30.80;;;;;;;15.22;100.00;99895.66;213771;1292;107134;-85
2024/03/02 14:30:02;;;;;;;49.20;28.00;;;;;;;15.18;100.00;99899.98;213103;1285;140284;-87
2024/03/02 14:35:02;;;;;;;50.90;30.70;;;;;;;15.13;100.00;99896.28;213699;1289;139467;-86
2024/03/02 14:40:06;;;;;;;51.90;30.40;;;;;;;15.10;100.00;99899.09;213123;1287;141093;-88
2024/03/02 14:45:06;;;;;;;47.40;30.40;;;;;;;15.02;100.00;99896.85;213719;1285;139861;-86
2024/03/02 14:50:07;;;;;;;49.90;29.60;;;;;;;14.87;100.00;99897.40;213379;1294;140096;-86
2024/03/02 14:55:07;;;;;;;41.90;28.90;;;;;;;14.78;100.00;99893.73;214176;1286;97958;-86
2024/03/02 15:00:11;;;;;;;46.00;28.70;;;;;;;14.71;100.00;99891.61;213816;1288;140229;-85
2024/03/02 15:05:11;;;;;;;45.80;28.50;;;;;;;14.62;100.00;99893.64;214229;1288;139530;-87
2024/03/02 15:10:12;;;;;;;49.40;30.00;;;;;;;14.56;100.00;99893.80;213541;1289;141718;-87
2024/03/02 15:15:12;;;;;;;49.40;32.40;;;;;;;14.50;100.00;99894.04;214013;1287;139489;-87
2024/03/02 15:20:13;;;;;;;76.70;57.30;;;;;;;14.41;100.00;99894.31;213712;1288;140143;-87
2024/03/02 15:25:15;;;;;;;64.10;39.90;;;;;;;14.32;100.00;99891.66;214363;1287;98443;-87
2024/03/02 15:30:16;;;;;;;69.10;39.50;;;;;;;14.22;100.00;99895.27;213436;1298;140248;-87
2024/03/02 15:35:17;;;;;;;58.40;37.00;;;;;;;14.13;100.00;99887.04;214387;1286;139522;-86
2024/03/02 15:40:17;;;;;;;57.50;33.50;;;;;;;14.06;100.00;99890.13;213419;1290;140507;-86
2024/03/02 15:45:18;;;;;;;54.30;34.50;;;;;;;13.97;100.00;99890.08;213715;1290;139934;-87
2024/03/02 15:50:18;;;;;;;56.70;34.80;;;;;;;13.86;100.00;99892.58;213240;1287;140838;-86
2024/03/02 15:55:18;;;;;;;53.70;34.20;;;;;;;13.76;100.00;99893.47;213782;1285;97983;-87
2024/03/02 16:00:19;;;;;;;55.00;32.20;;;;;;;13.68;100.00;99890.30;213404;1292;140213;-88
2024/03/02 16:05:20;;;;;;;51.20;33.70;;;;;;;13.60;100.00;99891.34;213998;1290;139063;-89
2024/03/02 16:10:21;;;;;;;50.20;32.20;;;;;;;13.50;100.00;99890.58;213440;1290;140210;-87
2024/03/02 16:15:21;;;;;;;52.40;31.70;;;;;;;13.41;100.00;99895.77;213991;1287;139393;-87
2024/03/02 16:20:21;;;;;;;56.00;34.10;;;;;;;13.33;100.00;99901.77;213644;1289;140851;-86
2024/03/02 16:25:24;;;;;;;58.70;35.90;;;;;;;13.23;100.00;99904.63;214302;1286;99231;-87
2024/03/02 16:30:25;;;;;;;53.60;33.80;;;;;;;13.14;100.00;99903.82;213494;1286;140004;-86
2024/03/02 16:35:28;;;;;;;187.20;87.90;;;;;;;13.06;100.00;99904.59;214198;1288;139014;-85
2024/03/02 16:40:30;;;;;;;413.40;193.60;;;;;;;13.00;100.00;99899.27;213575;1285;140667;-86
2024/03/02 16:45:31;;;;;;;154.50;68.30;;;;;;;12.91;100.00;99900.32;214378;1284;140358;-86
2024/03/02 16:50:32;;;;;;;108.40;50.40;;;;;;;12.84;100.00;99905.19;213662;1291;140768;-86
2024/03/02 16:55:32;;;;;;;100.60;49.40;;;;;;;12.75;100.00;99904.06;214316;1285;97985;-87
2024/03/02 17:00:33;;;;;;;96.80;50.40;;;;;;;12.66;100.00;99903.24;213571;1290;140398;-86
2024/03/02 17:05:33;;;;;;;74.60;41.80;;;;;;;12.57;100.00;99906.93;214431;1286;139787;-90
2024/03/02 17:10:34;;;;;;;80.60;41.90;;;;;;;12.50;100.00;99910.52;213963;1289;140402;-87
2024/03/02 17:15:34;;;;;;;90.50;48.60;;;;;;;12.42;100.00;99910.95;215310;1285;139690;-87
2024/03/02 17:20:35;;;;;;;76.30;43.90;;;;;;;12.36;100.00;99907.27;214921;1288;140374;-87
2024/03/02 17:25:35;;;;;;;95.70;46.70;;;;;;;12.31;100.00;99906.10;215498;1285;97950;-88
2024/03/02 17:30:35;;;;;;;105.30;52.40;;;;;;;12.25;100.00;99904.48;213737;1286;140321;-86
2024/03/02 17:35:36;;;;;;;91.00;48.00;;;;;;;12.19;100.00;99910.24;213763;1292;139187;-88
2024/03/02 17:40:37;;;;;;;88.90;49.10;;;;;;;12.15;100.00;99917.36;213734;1288;140467;-88
2024/03/02 17:45:39;;;;;;;78.40;46.40;;;;;;;12.10;100.00;99912.65;214643;1285;139994;-87
2024/03/02 17:50:39;;;;;;;79.30;45.50;;;;;;;12.04;100.00;99910.95;214643;1284;140564;-89
2024/03/02 17:55:40;;;;;;;80.20;45.40;;;;;;;11.99;100.00;99912.77;214395;1285;98076;-88
2024/03/02 18:00:40;;;;;;;69.00;41.70;;;;;;;11.95;100.00;99913.80;213527;1286;139843;-88
2024/03/02 18:05:41;;;;;;;75.50;44.80;;;;;;;11.88;100.00;99915.94;214060;1290;139771;-88
2024/03/02 18:10:41;;;;;;;80.90;46.20;;;;;;;11.82;100.00;99917.05;213520;1290;140401;-88
2024/03/02 18:15:42;;;;;;;84.50;46.90;;;;;;;11.75;100.00;99925.27;213888;1290;140301;-85
2024/03/02 18:20:43;;;;;;;79.20;43.70;;;;;;;11.67;100.00;99928.67;214201;1287;140259;-86
2024/03/02 18:25:47;;;;;;;113.50;60.30;;;;;;;11.60;100.00;99930.48;214807;1287;98371;-86
2024/03/02 18:30:47;;;;;;;106.50;49.30;;;;;;;11.53;100.00;99931.02;213464;1290;140291;-87
2024/03/02 18:35:48;;;;;;;84.80;45.40;;;;;;;11.47;100.00;99934.64;214197;1284;140385;-86
2024/03/02 18:40:48;;;;;;;72.70;41.60;;;;;;;11.41;100.00;99931.02;213694;1284;140466;-86
2024/03/02 18:45:49;;;;;;;73.80;41.90;;;;;;;11.34;100.00;99933.70;214210;1288;139800;-86
2024/03/02 18:50:49;;;;;;;70.80;40.40;;;;;;;11.28;100.00;99931.58;213680;1285;140526;-86
2024/03/02 18:55:50;;;;;;;70.50;41.40;;;;;;;11.20;100.00;99934.71;214478;1288;139653;-84
2024/03/02 19:00:50;;;;;;;78.90;43.50;;;;;;;11.11;100.00;99935.02;213971;1285;141021;-86
2024/03/02 19:05:51;;;;;;;86.60;46.60;;;;;;;11.01;100.00;99938.23;214612;1285;139085;-86
2024/03/02 19:10:52;;;;;;;256.40;111.30;;;;;;;10.92;100.00;99940.66;213633;1286;140895;-85
2024/03/02 19:15:52;;;;;;;134.10;63.20;;;;;;;10.86;100.00;99940.19;214271;1288;139979;-85
2024/03/02 19:20:54;;;;;;;105.40;53.20;;;;;;;10.80;100.00;99941.58;214051;1286;140651;-86
2024/03/02 19:25:54;;;;;;;103.10;47.40;;;;;;;10.74;100.00;99938.98;214708;1287;139579;-87
2024/03/02 19:30:55;;;;;;;106.40;48.30;;;;;;;10.69;100.00;99940.30;213497;1290;140952;-87
2024/03/02 19:35:55;;;;;;;101.30;49.10;;;;;;;10.63;100.00;99935.96;213981;1284;139252;-87
2024/03/02 19:40:56;;;;;;;97.30;50.30;;;;;;;10.57;100.00;99938.29;213351;1286;140574;-86
2024/03/02 19:45:56;;;;;;;113.40;49.80;;;;;;;10.52;100.00;99940.55;214009;1288;139234;-86
2024/03/02 19:50:57;;;;;;;108.50;50.80;;;;;;;10.46;100.00;99941.25;213588;1290;140966;-87
2024/03/02 19:55:57;;;;;;;111.10;56.10;;;;;;;10.41;100.00;99937.54;214226;1285;139336;-86
2024/03/02 20:00:57;;;;;;;102.00;50.80;;;;;;;10.37;100.00;99942.08;213848;1287;140683;-86
2024/03/02 20:05:58;;;;;;;92.10;49.90;;;;;;;10.34;100.00;99940.89;214335;1285;140505;-85
2024/03/02 20:10:58;;;;;;;94.60;49.00;;;;;;;10.30;100.00;99940.48;213664;1285;140575;-86
2024/03/02 20:15:59;;;;;;;89.50;49.70;;;;;;;10.27;100.00;99941.41;214115;1285;139501;-85
2024/03/02 20:20:59;;;;;;;100.30;52.20;;;;;;;10.24;100.00;99941.16;213653;1285;139397;-86
2024/03/02 20:26:00;;;;;;;112.10;54.70;;;;;;;10.22;100.00;99938.40;214444;1285;146701;-86
2024/03/02 20:31:00;;;;;;;93.60;49.90;;;;;;;10.19;100.00;99938.38;213950;1288;141367;-84
2024/03/02 20:36:02;;;;;;;97.30;51.60;;;;;;;10.19;100.00;99937.04;214274;1285;139305;-85
2024/03/02 20:41:03;;;;;;;92.90;49.10;;;;;;;10.18;100.00;99941.98;213711;1284;141194;-85
2024/03/02 20:46:07;;;;;;;92.40;48.60;;;;;;;10.15;100.00;99942.98;214302;1285;140064;-84
2024/03/02 20:51:07;;;;;;;95.80;49.20;;;;;;;10.14;100.00;99944.09;213618;1288;140271;-85
2024/03/02 20:56:07;;;;;;;80.90;44.60;;;;;;;10.12;100.00;99943.85;214092;1285;139310;-85
2024/03/02 21:01:10;;;;;;;93.30;46.60;;;;;;;10.11;100.00;99946.67;213681;1288;140037;-85
2024/03/02 21:06:11;;;;;;;84.90;45.20;;;;;;;10.10;100.00;99948.70;213975;1285;139852;-84
2024/03/02 21:11:14;;;;;;;96.10;49.50;;;;;;;10.07;100.00;99950.02;213580;1286;140304;-84
2024/03/02 21:16:16;;;;;;;96.50;49.20;;;;;;;10.05;100.00;99948.52;213779;1287;140475;-85
2024/03/02 21:21:16;;;;;;;96.20;49.20;;;;;;;10.04;100.00;99947.02;213703;1288;139336;-85
2024/03/02 21:26:17;;;;;;;93.60;46.90;;;;;;;10.05;100.00;99951.11;214136;1285;143216;-86
2024/03/02 21:31:17;;;;;;;94.10;49.10;;;;;;;10.05;100.00;99951.51;214147;1288;98060;-86
2024/03/02 21:36:17;;;;;;;87.80;45.60;;;;;;;10.04;100.00;99950.86;213608;1288;140435;-86
2024/03/02 21:41:18;;;;;;;97.00;50.40;;;;;;;10.03;100.00;99950.14;213975;1285;139308;-86
2024/03/02 21:46:18;;;;;;;97.20;48.60;;;;;;;10.02;100.00;99951.30;213600;1284;140461;-85
2024/03/02 21:51:18;;;;;;;96.60;48.30;;;;;;;10.02;100.00;99949.97;214056;1285;139283;-85
2024/03/02 21:56:19;;;;;;;86.10;46.20;;;;;;;10.03;100.00;99956.33;213643;1285;140705;-85
2024/03/02 22:01:19;;;;;;;92.40;44.10;;;;;;;10.02;100.00;99961.11;214359;1284;97967;-85
2024/03/02 22:06:20;;;;;;;92.90;47.40;;;;;;;10.01;100.00;99969.27;213690;1285;140594;-85
2024/03/02 22:11:20;;;;;;;98.90;52.10;;;;;;;9.99;100.00;99967.85;214099;1284;139757;-85
2024/03/02 22:16:23;;;;;;;86.50;46.20;;;;;;;9.95;100.00;99963.43;213621;1284;140360;-85
2024/03/02 22:21:23;;;;;;;112.10;53.10;;;;;;;9.91;100.00;99966.09;214090;1285;139262;-85
2024/03/02 22:26:24;;;;;;;106.20;50.30;;;;;;;9.89;100.00;99966.38;214023;1286;140254;-86